Alief, Texas
Current Conditions -  °F | °C
As of 3:53 AM on Thursday 29 Jan 2015 (Local Time) from KSGR Reporting Station
Moderate Fog Moderate Fog  
Wind Chill: 12°   Ceiling: 200
Heat Index: 12°   Visibility: 0.25mi
Dew Point: 12°   Wind: 3mph
Humidity: 97%   Direction: 190°S
Pressure: 30.15"   Gusts: NA
Location:  29.71°N, 95.6°W
Report Text: KSGR 290953Z AUTO 19003KT 1/4SM FG VV002 12/12 A3015 RMK AO2 SLP211 T01220117
Loading
Personal Weather Stations






























Interactive Weather Map New forecast layout! Learn more

10-Day Weather Forecast

Advertisements
Track Severe Weather on mobile